sensor_id;sensor_type;location;lat;lon;timestamp;temperature;humidity
13652;DHT22;6899;51.546;6.912;2022-09-28T00:01:20;7.70;99.90
13652;DHT22;6899;51.546;6.912;2022-09-28T00:03:49;7.70;99.90
13652;DHT22;6899;51.546;6.912;2022-09-28T00:06:18;7.60;99.90
13652;DHT22;6899;51.546;6.912;2022-09-28T00:08:47;7.60;99.90
13652;DHT22;6899;51.546;6.912;2022-09-28T00:11:18;7.50;99.90
13652;DHT22;6899;51.546;6.912;2022-09-28T00:13:48;7.50;99.90
13652;DHT22;6899;51.546;6.912;2022-09-28T00:16:19;7.40;99.90
13652;DHT22;6899;51.546;6.912;2022-09-28T00:18:46;7.50;99.90
13652;DHT22;6899;51.546;6.912;2022-09-28T00:21:22;7.60;99.90
13652;DHT22;6899;51.546;6.912;2022-09-28T00:24:03;7.60;99.90
13652;DHT22;6899;51.546;6.912;2022-09-28T00:26:46;7.60;99.90
13652;DHT22;6899;51.546;6.912;2022-09-28T00:29:17;7.60;99.90
13652;DHT22;6899;51.546;6.912;2022-09-28T00:31:44;7.70;99.90
13652;DHT22;6899;51.546;6.912;2022-09-28T00:34:12;7.60;99.90
13652;DHT22;6899;51.546;6.912;2022-09-28T00:36:45;7.50;99.90
13652;DHT22;6899;51.546;6.912;2022-09-28T00:39:18;7.40;99.90
13652;DHT22;6899;51.546;6.912;2022-09-28T00:41:45;7.30;99.90
13652;DHT22;6899;51.546;6.912;2022-09-28T00:44:37;7.20;99.90
13652;DHT22;6899;51.546;6.912;2022-09-28T00:50:06;7.20;99.90
13652;DHT22;6899;51.546;6.912;2022-09-28T00:52:38;7.20;99.90
13652;DHT22;6899;51.546;6.912;2022-09-28T00:55:15;7.30;99.90
13652;DHT22;6899;51.546;6.912;2022-09-28T00:57:46;7.40;99.90
13652;DHT22;6899;51.546;6.912;2022-09-28T01:00:15;7.40;99.90
13652;DHT22;6899;51.546;6.912;2022-09-28T01:02:42;7.30;99.90
13652;DHT22;6899;51.546;6.912;2022-09-28T01:05:10;7.20;99.90
13652;DHT22;6899;51.546;6.912;2022-09-28T01:07:38;7.00;99.90
13652;DHT22;6899;51.546;6.912;2022-09-28T01:10:07;7.00;99.90
13652;DHT22;6899;51.546;6.912;2022-09-28T01:12:35;7.00;99.90
13652;DHT22;6899;51.546;6.912;2022-09-28T01:15:03;6.90;99.90
13652;DHT22;6899;51.546;6.912;2022-09-28T01:17:46;7.00;99.90
13652;DHT22;6899;51.546;6.912;2022-09-28T01:20:38;7.00;99.90
13652;DHT22;6899;51.546;6.912;2022-09-28T01:23:40;7.10;99.90
13652;DHT22;6899;51.546;6.912;2022-09-28T01:26:46;7.20;99.90
13652;DHT22;6899;51.546;6.912;2022-09-28T01:29:24;7.20;99.90
13652;DHT22;6899;51.546;6.912;2022-09-28T01:32:04;7.30;99.90
13652;DHT22;6899;51.546;6.912;2022-09-28T01:34:37;7.30;99.90
13652;DHT22;6899;51.546;6.912;2022-09-28T01:37:08;7.30;99.90
13652;DHT22;6899;51.546;6.912;2022-09-28T01:39:45;7.40;99.90
13652;DHT22;6899;51.546;6.912;2022-09-28T01:42:19;7.50;99.90
13652;DHT22;6899;51.546;6.912;2022-09-28T01:44:49;7.50;99.90
13652;DHT22;6899;51.546;6.912;2022-09-28T01:47:20;7.60;99.90
13652;DHT22;6899;51.546;6.912;2022-09-28T01:49:50;7.70;99.90
13652;DHT22;6899;51.546;6.912;2022-09-28T01:52:23;7.90;99.90
13652;DHT22;6899;51.546;6.912;2022-09-28T01:54:55;7.80;99.90
13652;DHT22;6899;51.546;6.912;2022-09-28T01:57:29;7.90;99.90
13652;DHT22;6899;51.546;6.912;2022-09-28T02:00:01;7.90;99.90
13652;DHT22;6899;51.546;6.912;2022-09-28T02:02:32;7.90;99.90
13652;DHT22;6899;51.546;6.912;2022-09-28T02:05:05;8.00;99.90
13652;DHT22;6899;51.546;6.912;2022-09-28T02:07:37;8.00;99.90
13652;DHT22;6899;51.546;6.912;2022-09-28T02:10:08;8.00;99.90
13652;DHT22;6899;51.546;6.912;2022-09-28T02:12:51;8.00;99.90
13652;DHT22;6899;51.546;6.912;2022-09-28T02:15:23;7.80;99.90
13652;DHT22;6899;51.546;6.912;2022-09-28T02:17:55;7.70;99.90
13652;DHT22;6899;51.546;6.912;2022-09-28T02:20:23;7.70;99.90
13652;DHT22;6899;51.546;6.912;2022-09-28T02:22:53;7.70;99.90
13652;DHT22;6899;51.546;6.912;2022-09-28T02:25:25;7.70;99.90
13652;DHT22;6899;51.546;6.912;2022-09-28T02:27:58;7.60;99.90
13652;DHT22;6899;51.546;6.912;2022-09-28T02:30:26;7.60;99.90
13652;DHT22;6899;51.546;6.912;2022-09-28T02:33:00;7.60;99.90
13652;DHT22;6899;51.546;6.912;2022-09-28T02:35:29;7.60;99.90
13652;DHT22;6899;51.546;6.912;2022-09-28T02:37:58;7.70;99.90
13652;DHT22;6899;51.546;6.912;2022-09-28T02:40:29;7.70;99.90
13652;DHT22;6899;51.546;6.912;2022-09-28T02:43:03;7.60;99.90
13652;DHT22;6899;51.546;6.912;2022-09-28T02:45:49;7.60;99.90
13652;DHT22;6899;51.546;6.912;2022-09-28T02:48:28;7.50;99.90
13652;DHT22;6899;51.546;6.912;2022-09-28T02:51:06;7.50;99.90
13652;DHT22;6899;51.546;6.912;2022-09-28T02:54:05;7.50;99.90
13652;DHT22;6899;51.546;6.912;2022-09-28T02:56:58;7.40;99.90
13652;DHT22;6899;51.546;6.912;2022-09-28T02:59:42;7.30;99.90
13652;DHT22;6899;51.546;6.912;2022-09-28T03:02:24;7.20;99.90
13652;DHT22;6899;51.546;6.912;2022-09-28T03:05:03;7.10;99.90
13652;DHT22;6899;51.546;6.912;2022-09-28T03:07:51;7.00;99.90
13652;DHT22;6899;51.546;6.912;2022-09-28T03:10:24;7.00;99.90
13652;DHT22;6899;51.546;6.912;2022-09-28T03:12:57;6.90;99.90
13652;DHT22;6899;51.546;6.912;2022-09-28T03:15:27;6.80;99.90
13652;DHT22;6899;51.546;6.912;2022-09-28T03:17:55;6.80;99.90
13652;DHT22;6899;51.546;6.912;2022-09-28T03:20:23;6.80;99.90
13652;DHT22;6899;51.546;6.912;2022-09-28T03:22:50;6.80;99.90
13652;DHT22;6899;51.546;6.912;2022-09-28T03:25:21;6.90;99.90
13652;DHT22;6899;51.546;6.912;2022-09-28T03:27:48;7.00;99.90
13652;DHT22;6899;51.546;6.912;2022-09-28T03:30:16;7.10;99.90
13652;DHT22;6899;51.546;6.912;2022-09-28T03:32:44;7.20;99.90
13652;DHT22;6899;51.546;6.912;2022-09-28T03:35:11;7.20;99.90
13652;DHT22;6899;51.546;6.912;2022-09-28T03:37:38;7.20;99.90
13652;DHT22;6899;51.546;6.912;2022-09-28T03:40:05;7.30;99.90
13652;DHT22;6899;51.546;6.912;2022-09-28T03:42:35;7.20;99.90
13652;DHT22;6899;51.546;6.912;2022-09-28T03:45:03;7.20;99.90
13652;DHT22;6899;51.546;6.912;2022-09-28T03:47:33;7.30;99.90
13652;DHT22;6899;51.546;6.912;2022-09-28T03:50:02;7.30;99.90
13652;DHT22;6899;51.546;6.912;2022-09-28T03:52:31;7.30;99.90
13652;DHT22;6899;51.546;6.912;2022-09-28T03:55:01;7.40;99.90
13652;DHT22;6899;51.546;6.912;2022-09-28T03:57:28;7.40;99.90
13652;DHT22;6899;51.546;6.912;2022-09-28T03:59:55;7.30;99.90
13652;DHT22;6899;51.546;6.912;2022-09-28T04:02:25;7.40;99.90
13652;DHT22;6899;51.546;6.912;2022-09-28T04:04:52;7.40;99.90
13652;DHT22;6899;51.546;6.912;2022-09-28T04:07:20;7.40;99.90
13652;DHT22;6899;51.546;6.912;2022-09-28T04:09:47;7.40;99.90
13652;DHT22;6899;51.546;6.912;2022-09-28T04:12:14;7.50;99.90
13652;DHT22;6899;51.546;6.912;2022-09-28T04:14:44;7.50;99.90
13652;DHT22;6899;51.546;6.912;2022-09-28T04:17:23;7.50;99.90
13652;DHT22;6899;51.546;6.912;2022-09-28T04:19:50;7.50;99.90
13652;DHT22;6899;51.546;6.912;2022-09-28T04:22:17;7.50;99.90
13652;DHT22;6899;51.546;6.912;2022-09-28T04:24:46;7.50;99.90
13652;DHT22;6899;51.546;6.912;2022-09-28T04:27:12;7.60;99.90
13652;DHT22;6899;51.546;6.912;2022-09-28T04:29:57;7.60;99.90
13652;DHT22;6899;51.546;6.912;2022-09-28T04:32:24;7.50;99.90
13652;DHT22;6899;51.546;6.912;2022-09-28T04:34:51;7.60;99.90
13652;DHT22;6899;51.546;6.912;2022-09-28T04:37:18;7.60;99.90
13652;DHT22;6899;51.546;6.912;2022-09-28T04:39:46;7.50;99.90
13652;DHT22;6899;51.546;6.912;2022-09-28T04:42:13;7.50;99.90
13652;DHT22;6899;51.546;6.912;2022-09-28T04:44:40;7.50;99.90
13652;DHT22;6899;51.546;6.912;2022-09-28T04:47:07;7.50;99.90
13652;DHT22;6899;51.546;6.912;2022-09-28T04:49:34;7.50;99.90
13652;DHT22;6899;51.546;6.912;2022-09-28T04:52:03;7.60;99.90
13652;DHT22;6899;51.546;6.912;2022-09-28T04:54:30;7.60;99.90
13652;DHT22;6899;51.546;6.912;2022-09-28T04:56:58;7.50;99.90
13652;DHT22;6899;51.546;6.912;2022-09-28T04:59:26;7.50;99.90
13652;DHT22;6899;51.546;6.912;2022-09-28T05:01:54;7.50;99.90
13652;DHT22;6899;51.546;6.912;2022-09-28T05:04:21;7.40;99.90
13652;DHT22;6899;51.546;6.912;2022-09-28T05:06:48;7.30;99.90
13652;DHT22;6899;51.546;6.912;2022-09-28T05:09:15;7.20;99.90
13652;DHT22;6899;51.546;6.912;2022-09-28T05:11:45;7.20;99.90
13652;DHT22;6899;51.546;6.912;2022-09-28T05:14:13;7.30;99.90
13652;DHT22;6899;51.546;6.912;2022-09-28T05:16:41;7.30;99.90
13652;DHT22;6899;51.546;6.912;2022-09-28T05:19:09;7.30;99.90
13652;DHT22;6899;51.546;6.912;2022-09-28T05:21:36;7.30;99.90
13652;DHT22;6899;51.546;6.912;2022-09-28T05:24:04;7.30;99.90
13652;DHT22;6899;51.546;6.912;2022-09-28T05:26:32;7.30;99.90
13652;DHT22;6899;51.546;6.912;2022-09-28T05:28:58;7.40;99.90
13652;DHT22;6899;51.546;6.912;2022-09-28T05:31:30;7.40;99.90
13652;DHT22;6899;51.546;6.912;2022-09-28T05:33:57;7.30;99.90
13652;DHT22;6899;51.546;6.912;2022-09-28T05:36:24;7.30;99.90
13652;DHT22;6899;51.546;6.912;2022-09-28T05:38:52;7.20;99.90
13652;DHT22;6899;51.546;6.912;2022-09-28T05:41:19;7.10;99.90
13652;DHT22;6899;51.546;6.912;2022-09-28T05:43:46;7.00;99.90
13652;DHT22;6899;51.546;6.912;2022-09-28T05:46:20;7.00;99.90
13652;DHT22;6899;51.546;6.912;2022-09-28T05:48:49;7.10;99.90
13652;DHT22;6899;51.546;6.912;2022-09-28T05:51:17;7.10;99.90
13652;DHT22;6899;51.546;6.912;2022-09-28T05:53:44;7.20;99.90
13652;DHT22;6899;51.546;6.912;2022-09-28T05:56:11;7.30;99.90
13652;DHT22;6899;51.546;6.912;2022-09-28T05:58:38;7.30;99.90
13652;DHT22;6899;51.546;6.912;2022-09-28T06:01:06;7.50;99.90
13652;DHT22;6899;51.546;6.912;2022-09-28T06:03:35;7.70;99.90
13652;DHT22;6899;51.546;6.912;2022-09-28T06:06:03;7.80;99.90
13652;DHT22;6899;51.546;6.912;2022-09-28T06:08:31;7.90;99.90
13652;DHT22;6899;51.546;6.912;2022-09-28T06:10:58;7.90;99.90
13652;DHT22;6899;51.546;6.912;2022-09-28T06:13:26;8.00;99.90
13652;DHT22;6899;51.546;6.912;2022-09-28T06:15:53;8.00;99.90
13652;DHT22;6899;51.546;6.912;2022-09-28T06:18:20;8.00;99.90
13652;DHT22;6899;51.546;6.912;2022-09-28T06:20:47;8.00;99.90
13652;DHT22;6899;51.546;6.912;2022-09-28T06:23:18;8.10;99.90
13652;DHT22;6899;51.546;6.912;2022-09-28T06:25:45;8.20;99.90
13652;DHT22;6899;51.546;6.912;2022-09-28T06:28:13;8.20;99.90
13652;DHT22;6899;51.546;6.912;2022-09-28T06:30:42;8.30;99.90
13652;DHT22;6899;51.546;6.912;2022-09-28T06:33:11;8.30;99.90
13652;DHT22;6899;51.546;6.912;2022-09-28T06:35:38;8.30;99.90
13652;DHT22;6899;51.546;6.912;2022-09-28T06:38:06;8.30;99.90
13652;DHT22;6899;51.546;6.912;2022-09-28T06:40:35;8.30;99.90
13652;DHT22;6899;51.546;6.912;2022-09-28T06:43:04;8.40;99.90
13652;DHT22;6899;51.546;6.912;2022-09-28T06:45:35;8.40;99.90
13652;DHT22;6899;51.546;6.912;2022-09-28T06:48:03;8.40;99.90
13652;DHT22;6899;51.546;6.912;2022-09-28T06:50:32;8.40;99.90
13652;DHT22;6899;51.546;6.912;2022-09-28T06:53:00;8.30;99.90
13652;DHT22;6899;51.546;6.912;2022-09-28T06:55:28;8.40;99.90
13652;DHT22;6899;51.546;6.912;2022-09-28T06:58:01;8.30;99.90
13652;DHT22;6899;51.546;6.912;2022-09-28T07:00:30;8.40;99.90
13652;DHT22;6899;51.546;6.912;2022-09-28T07:03:02;8.30;99.90
13652;DHT22;6899;51.546;6.912;2022-09-28T07:05:34;8.30;99.90
13652;DHT22;6899;51.546;6.912;2022-09-28T07:08:07;8.30;99.90
13652;DHT22;6899;51.546;6.912;2022-09-28T07:10:41;8.40;99.90
13652;DHT22;6899;51.546;6.912;2022-09-28T07:13:11;8.40;99.90
13652;DHT22;6899;51.546;6.912;2022-09-28T07:15:39;8.50;99.90
13652;DHT22;6899;51.546;6.912;2022-09-28T07:18:07;8.50;99.90
13652;DHT22;6899;51.546;6.912;2022-09-28T07:20:36;8.50;99.90
13652;DHT22;6899;51.546;6.912;2022-09-28T07:23:06;8.50;99.90
13652;DHT22;6899;51.546;6.912;2022-09-28T07:25:33;8.60;99.90
13652;DHT22;6899;51.546;6.912;2022-09-28T07:28:02;8.70;99.90
13652;DHT22;6899;51.546;6.912;2022-09-28T07:30:34;8.90;99.90
13652;DHT22;6899;51.546;6.912;2022-09-28T07:33:01;9.00;99.90
13652;DHT22;6899;51.546;6.912;2022-09-28T07:35:28;8.80;99.90
13652;DHT22;6899;51.546;6.912;2022-09-28T07:37:57;8.90;99.90
13652;DHT22;6899;51.546;6.912;2022-09-28T07:40:26;9.10;99.90
13652;DHT22;6899;51.546;6.912;2022-09-28T07:43:10;9.30;99.90
13652;DHT22;6899;51.546;6.912;2022-09-28T07:45:39;9.20;99.90
13652;DHT22;6899;51.546;6.912;2022-09-28T07:48:12;9.40;99.90
13652;DHT22;6899;51.546;6.912;2022-09-28T07:50:39;9.40;99.90
13652;DHT22;6899;51.546;6.912;2022-09-28T07:53:06;9.40;99.90
13652;DHT22;6899;51.546;6.912;2022-09-28T07:55:33;9.50;99.90
13652;DHT22;6899;51.546;6.912;2022-09-28T07:58:00;9.60;99.90
13652;DHT22;6899;51.546;6.912;2022-09-28T08:00:27;9.70;99.90
13652;DHT22;6899;51.546;6.912;2022-09-28T08:02:59;9.80;99.90
13652;DHT22;6899;51.546;6.912;2022-09-28T08:05:27;10.00;99.90
13652;DHT22;6899;51.546;6.912;2022-09-28T08:07:55;9.90;99.90
13652;DHT22;6899;51.546;6.912;2022-09-28T08:10:23;9.90;99.90
13652;DHT22;6899;51.546;6.912;2022-09-28T08:12:53;9.70;99.90
13652;DHT22;6899;51.546;6.912;2022-09-28T08:15:21;9.80;99.90
13652;DHT22;6899;51.546;6.912;2022-09-28T08:17:48;10.00;99.90
13652;DHT22;6899;51.546;6.912;2022-09-28T08:20:21;9.80;99.90
13652;DHT22;6899;51.546;6.912;2022-09-28T08:23:06;10.00;99.90
13652;DHT22;6899;51.546;6.912;2022-09-28T08:25:34;10.20;99.90
13652;DHT22;6899;51.546;6.912;2022-09-28T08:28:10;10.30;99.90
13652;DHT22;6899;51.546;6.912;2022-09-28T08:30:37;10.40;99.90
13652;DHT22;6899;51.546;6.912;2022-09-28T08:33:04;10.70;99.90
13652;DHT22;6899;51.546;6.912;2022-09-28T08:35:33;10.90;99.90
13652;DHT22;6899;51.546;6.912;2022-09-28T08:38:00;11.40;99.90
13652;DHT22;6899;51.546;6.912;2022-09-28T08:40:28;11.30;99.90
13652;DHT22;6899;51.546;6.912;2022-09-28T08:43:01;11.30;99.90
13652;DHT22;6899;51.546;6.912;2022-09-28T08:45:31;11.30;99.90
13652;DHT22;6899;51.546;6.912;2022-09-28T08:48:02;11.60;99.90
13652;DHT22;6899;51.546;6.912;2022-09-28T08:50:53;11.70;99.90
13652;DHT22;6899;51.546;6.912;2022-09-28T08:53:35;11.80;99.90
13652;DHT22;6899;51.546;6.912;2022-09-28T08:56:09;12.10;99.90
13652;DHT22;6899;51.546;6.912;2022-09-28T08:58:41;12.30;99.90
13652;DHT22;6899;51.546;6.912;2022-09-28T09:01:12;12.30;99.90
13652;DHT22;6899;51.546;6.912;2022-09-28T09:03:43;12.30;99.90
13652;DHT22;6899;51.546;6.912;2022-09-28T09:06:19;12.40;99.90
13652;DHT22;6899;51.546;6.912;2022-09-28T09:08:58;12.90;99.90
13652;DHT22;6899;51.546;6.912;2022-09-28T09:11:40;12.80;99.90
13652;DHT22;6899;51.546;6.912;2022-09-28T09:14:30;12.70;99.90
13652;DHT22;6899;51.546;6.912;2022-09-28T09:17:05;12.80;99.90
13652;DHT22;6899;51.546;6.912;2022-09-28T09:19:47;12.80;99.90
13652;DHT22;6899;51.546;6.912;2022-09-28T09:22:25;12.70;99.90
13652;DHT22;6899;51.546;6.912;2022-09-28T09:25:04;12.80;99.90
13652;DHT22;6899;51.546;6.912;2022-09-28T09:27:46;12.70;99.90
13652;DHT22;6899;51.546;6.912;2022-09-28T09:30:20;12.90;99.90
13652;DHT22;6899;51.546;6.912;2022-09-28T09:33:02;13.20;99.90
13652;DHT22;6899;51.546;6.912;2022-09-28T09:36:11;13.70;99.90
13652;DHT22;6899;51.546;6.912;2022-09-28T09:38:57;14.00;99.90
13652;DHT22;6899;51.546;6.912;2022-09-28T09:41:37;14.00;99.90
13652;DHT22;6899;51.546;6.912;2022-09-28T09:44:26;13.90;99.90
13652;DHT22;6899;51.546;6.912;2022-09-28T09:47:03;13.70;99.90
13652;DHT22;6899;51.546;6.912;2022-09-28T09:49:36;14.00;99.90
13652;DHT22;6899;51.546;6.912;2022-09-28T09:52:11;14.10;99.90
13652;DHT22;6899;51.546;6.912;2022-09-28T09:54:44;13.90;99.90
13652;DHT22;6899;51.546;6.912;2022-09-28T09:57:16;13.90;99.90
13652;DHT22;6899;51.546;6.912;2022-09-28T09:59:43;14.10;99.90
13652;DHT22;6899;51.546;6.912;2022-09-28T10:02:23;14.00;99.90
13652;DHT22;6899;51.546;6.912;2022-09-28T10:04:53;14.00;99.90
13652;DHT22;6899;51.546;6.912;2022-09-28T10:07:24;14.40;99.90
13652;DHT22;6899;51.546;6.912;2022-09-28T10:09:55;14.80;99.90
13652;DHT22;6899;51.546;6.912;2022-09-28T10:12:23;15.10;99.90
13652;DHT22;6899;51.546;6.912;2022-09-28T10:14:50;15.30;99.90
13652;DHT22;6899;51.546;6.912;2022-09-28T10:17:18;15.20;99.90
13652;DHT22;6899;51.546;6.912;2022-09-28T10:19:52;14.60;99.90
13652;DHT22;6899;51.546;6.912;2022-09-28T10:22:24;14.30;99.90
13652;DHT22;6899;51.546;6.912;2022-09-28T10:24:53;13.80;99.90
13652;DHT22;6899;51.546;6.912;2022-09-28T10:27:25;13.20;99.90
13652;DHT22;6899;51.546;6.912;2022-09-28T10:29:55;12.80;99.90
13652;DHT22;6899;51.546;6.912;2022-09-28T10:32:24;12.50;99.90
13652;DHT22;6899;51.546;6.912;2022-09-28T10:34:53;12.40;99.90
13652;DHT22;6899;51.546;6.912;2022-09-28T10:37:46;12.70;99.90
13652;DHT22;6899;51.546;6.912;2022-09-28T10:40:26;13.40;99.90
13652;DHT22;6899;51.546;6.912;2022-09-28T10:42:59;14.00;99.90
13652;DHT22;6899;51.546;6.912;2022-09-28T10:45:32;14.40;99.90
13652;DHT22;6899;51.546;6.912;2022-09-28T10:48:03;14.70;99.90
13652;DHT22;6899;51.546;6.912;2022-09-28T10:50:31;14.70;99.90
13652;DHT22;6899;51.546;6.912;2022-09-28T10:53:10;14.50;99.90
13652;DHT22;6899;51.546;6.912;2022-09-28T10:55:39;14.50;99.90
13652;DHT22;6899;51.546;6.912;2022-09-28T10:58:24;14.40;99.90
13652;DHT22;6899;51.546;6.912;2022-09-28T11:00:52;14.50;99.90
13652;DHT22;6899;51.546;6.912;2022-09-28T11:03:26;14.60;99.90
13652;DHT22;6899;51.546;6.912;2022-09-28T11:05:56;14.70;99.90
13652;DHT22;6899;51.546;6.912;2022-09-28T11:08:26;14.90;99.90
13652;DHT22;6899;51.546;6.912;2022-09-28T11:11:06;15.00;99.90
13652;DHT22;6899;51.546;6.912;2022-09-28T11:13:42;14.70;99.90
13652;DHT22;6899;51.546;6.912;2022-09-28T11:16:19;14.60;99.90
13652;DHT22;6899;51.546;6.912;2022-09-28T11:18:46;14.80;99.90
13652;DHT22;6899;51.546;6.912;2022-09-28T11:21:15;15.00;99.90
13652;DHT22;6899;51.546;6.912;2022-09-28T11:23:55;15.40;99.90
13652;DHT22;6899;51.546;6.912;2022-09-28T11:26:23;15.80;99.90
13652;DHT22;6899;51.546;6.912;2022-09-28T11:28:51;16.10;99.90
13652;DHT22;6899;51.546;6.912;2022-09-28T11:31:25;16.40;99.90
13652;DHT22;6899;51.546;6.912;2022-09-28T11:34:03;16.30;99.90
13652;DHT22;6899;51.546;6.912;2022-09-28T11:36:52;16.70;99.90
13652;DHT22;6899;51.546;6.912;2022-09-28T11:39:30;17.10;99.90
13652;DHT22;6899;51.546;6.912;2022-09-28T11:42:10;17.20;99.90
13652;DHT22;6899;51.546;6.912;2022-09-28T11:44:41;16.90;99.90
13652;DHT22;6899;51.546;6.912;2022-09-28T11:47:34;16.80;99.90
13652;DHT22;6899;51.546;6.912;2022-09-28T11:50:11;16.80;99.90
13652;DHT22;6899;51.546;6.912;2022-09-28T11:52:44;16.40;99.90
13652;DHT22;6899;51.546;6.912;2022-09-28T11:55:23;16.40;99.90
13652;DHT22;6899;51.546;6.912;2022-09-28T11:57:59;15.90;99.90
13652;DHT22;6899;51.546;6.912;2022-09-28T12:03:05;16.30;99.90
13652;DHT22;6899;51.546;6.912;2022-09-28T12:05:37;16.20;99.90
13652;DHT22;6899;51.546;6.912;2022-09-28T12:08:11;16.30;99.90
13652;DHT22;6899;51.546;6.912;2022-09-28T12:10:42;16.30;99.90
13652;DHT22;6899;51.546;6.912;2022-09-28T12:13:16;16.10;99.90
13652;DHT22;6899;51.546;6.912;2022-09-28T12:15:48;16.10;99.90
13652;DHT22;6899;51.546;6.912;2022-09-28T12:18:21;16.00;99.90
13652;DHT22;6899;51.546;6.912;2022-09-28T12:20:51;16.00;99.90
13652;DHT22;6899;51.546;6.912;2022-09-28T12:23:24;16.20;99.90
13652;DHT22;6899;51.546;6.912;2022-09-28T12:25:59;16.30;99.90
13652;DHT22;6899;51.546;6.912;2022-09-28T12:28:35;16.20;99.90
13652;DHT22;6899;51.546;6.912;2022-09-28T12:31:11;16.00;99.90
13652;DHT22;6899;51.546;6.912;2022-09-28T12:33:44;16.10;99.90
13652;DHT22;6899;51.546;6.912;2022-09-28T12:36:20;16.20;99.90
13652;DHT22;6899;51.546;6.912;2022-09-28T12:39:08;16.50;99.90
13652;DHT22;6899;51.546;6.912;2022-09-28T12:41:47;16.70;99.90
13652;DHT22;6899;51.546;6.912;2022-09-28T12:44:29;16.50;99.90
13652;DHT22;6899;51.546;6.912;2022-09-28T12:47:20;16.80;99.90
13652;DHT22;6899;51.546;6.912;2022-09-28T12:49:59;16.70;99.90
13652;DHT22;6899;51.546;6.912;2022-09-28T12:52:35;16.70;99.90
13652;DHT22;6899;51.546;6.912;2022-09-28T12:55:15;16.70;99.90
13652;DHT22;6899;51.546;6.912;2022-09-28T12:57:56;16.30;99.90
13652;DHT22;6899;51.546;6.912;2022-09-28T13:00:36;16.30;99.90
13652;DHT22;6899;51.546;6.912;2022-09-28T13:03:27;15.90;99.90
13652;DHT22;6899;51.546;6.912;2022-09-28T13:06:22;16.00;99.90
13652;DHT22;6899;51.546;6.912;2022-09-28T13:12:01;16.80;99.90
13652;DHT22;6899;51.546;6.912;2022-09-28T13:18:23;17.20;99.90
13652;DHT22;6899;51.546;6.912;2022-09-28T13:21:02;17.70;99.90
13652;DHT22;6899;51.546;6.912;2022-09-28T13:23:38;17.60;99.90
13652;DHT22;6899;51.546;6.912;2022-09-28T13:26:17;17.70;99.90
13652;DHT22;6899;51.546;6.912;2022-09-28T13:28:46;17.20;99.90
13652;DHT22;6899;51.546;6.912;2022-09-28T13:31:19;17.30;99.90
13652;DHT22;6899;51.546;6.912;2022-09-28T13:33:50;17.50;99.90
13652;DHT22;6899;51.546;6.912;2022-09-28T13:36:37;17.40;99.90
13652;DHT22;6899;51.546;6.912;2022-09-28T13:39:36;17.40;99.90
13652;DHT22;6899;51.546;6.912;2022-09-28T13:42:05;17.40;99.90
13652;DHT22;6899;51.546;6.912;2022-09-28T13:44:55;17.80;99.90
13652;DHT22;6899;51.546;6.912;2022-09-28T13:47:46;18.00;99.90
13652;DHT22;6899;51.546;6.912;2022-09-28T13:50:37;18.00;99.90
13652;DHT22;6899;51.546;6.912;2022-09-28T13:53:17;17.70;99.90
13652;DHT22;6899;51.546;6.912;2022-09-28T13:55:55;17.20;99.90
13652;DHT22;6899;51.546;6.912;2022-09-28T13:58:25;16.70;99.90
13652;DHT22;6899;51.546;6.912;2022-09-28T14:00:58;16.20;99.90
13652;DHT22;6899;51.546;6.912;2022-09-28T14:03:42;15.80;99.90
13652;DHT22;6899;51.546;6.912;2022-09-28T14:06:24;15.50;99.90
13652;DHT22;6899;51.546;6.912;2022-09-28T14:09:24;15.00;99.90
13652;DHT22;6899;51.546;6.912;2022-09-28T14:11:57;14.60;99.90
13652;DHT22;6899;51.546;6.912;2022-09-28T14:14:29;14.20;99.90
13652;DHT22;6899;51.546;6.912;2022-09-28T14:20:01;13.30;99.90
13652;DHT22;6899;51.546;6.912;2022-09-28T14:22:35;12.90;99.90
13652;DHT22;6899;51.546;6.912;2022-09-28T14:25:08;12.50;99.90
13652;DHT22;6899;51.546;6.912;2022-09-28T14:27:47;12.20;99.90
13652;DHT22;6899;51.546;6.912;2022-09-28T14:30:24;12.00;99.90
13652;DHT22;6899;51.546;6.912;2022-09-28T14:32:57;11.90;99.90
13652;DHT22;6899;51.546;6.912;2022-09-28T14:35:31;11.70;99.90
13652;DHT22;6899;51.546;6.912;2022-09-28T14:38:04;11.70;99.90
13652;DHT22;6899;51.546;6.912;2022-09-28T14:41:00;11.60;99.90
13652;DHT22;6899;51.546;6.912;2022-09-28T14:44:12;11.40;99.90
13652;DHT22;6899;51.546;6.912;2022-09-28T14:46:41;11.20;99.90
13652;DHT22;6899;51.546;6.912;2022-09-28T14:49:45;11.10;99.90
13652;DHT22;6899;51.546;6.912;2022-09-28T14:52:37;10.90;99.90
13652;DHT22;6899;51.546;6.912;2022-09-28T14:55:13;10.80;99.90
13652;DHT22;6899;51.546;6.912;2022-09-28T14:57:41;10.90;99.90
13652;DHT22;6899;51.546;6.912;2022-09-28T15:00:17;11.10;99.90
13652;DHT22;6899;51.546;6.912;2022-09-28T15:02:48;11.20;99.90
13652;DHT22;6899;51.546;6.912;2022-09-28T15:05:21;11.20;99.90
13652;DHT22;6899;51.546;6.912;2022-09-28T15:07:51;11.20;99.90
13652;DHT22;6899;51.546;6.912;2022-09-28T15:10:29;11.10;99.90
13652;DHT22;6899;51.546;6.912;2022-09-28T15:13:02;11.00;99.90
13652;DHT22;6899;51.546;6.912;2022-09-28T15:15:35;10.90;99.90
13652;DHT22;6899;51.546;6.912;2022-09-28T15:21:08;10.90;99.90
13652;DHT22;6899;51.546;6.912;2022-09-28T15:23:37;10.80;99.90
13652;DHT22;6899;51.546;6.912;2022-09-28T15:26:18;10.70;99.90
13652;DHT22;6899;51.546;6.912;2022-09-28T15:28:46;10.80;99.90
13652;DHT22;6899;51.546;6.912;2022-09-28T15:31:20;10.80;99.90
13652;DHT22;6899;51.546;6.912;2022-09-28T15:33:48;10.80;99.90
13652;DHT22;6899;51.546;6.912;2022-09-28T15:36:34;10.90;99.90
13652;DHT22;6899;51.546;6.912;2022-09-28T15:39:04;11.00;99.90
13652;DHT22;6899;51.546;6.912;2022-09-28T15:41:33;11.10;99.90
13652;DHT22;6899;51.546;6.912;2022-09-28T15:44:06;11.20;99.90
13652;DHT22;6899;51.546;6.912;2022-09-28T15:46:42;11.10;99.90
13652;DHT22;6899;51.546;6.912;2022-09-28T15:49:22;11.10;99.90
13652;DHT22;6899;51.546;6.912;2022-09-28T15:51:52;11.10;99.90
13652;DHT22;6899;51.546;6.912;2022-09-28T15:54:23;11.10;99.90
13652;DHT22;6899;51.546;6.912;2022-09-28T15:56:54;11.00;99.90
13652;DHT22;6899;51.546;6.912;2022-09-28T15:59:29;11.10;99.90
13652;DHT22;6899;51.546;6.912;2022-09-28T16:02:02;11.00;99.90
13652;DHT22;6899;51.546;6.912;2022-09-28T16:04:36;11.10;99.90
13652;DHT22;6899;51.546;6.912;2022-09-28T16:07:16;11.10;99.90
13652;DHT22;6899;51.546;6.912;2022-09-28T16:09:54;11.10;99.90
13652;DHT22;6899;51.546;6.912;2022-09-28T16:12:28;11.10;99.90
13652;DHT22;6899;51.546;6.912;2022-09-28T16:15:05;11.10;99.90
13652;DHT22;6899;51.546;6.912;2022-09-28T16:17:34;11.10;99.90
13652;DHT22;6899;51.546;6.912;2022-09-28T16:20:17;10.90;99.90
13652;DHT22;6899;51.546;6.912;2022-09-28T16:22:53;10.90;99.90
13652;DHT22;6899;51.546;6.912;2022-09-28T16:25:23;10.90;99.90
13652;DHT22;6899;51.546;6.912;2022-09-28T16:27:53;10.90;99.90
13652;DHT22;6899;51.546;6.912;2022-09-28T16:30:22;11.00;99.90
13652;DHT22;6899;51.546;6.912;2022-09-28T16:32:52;10.90;99.90
13652;DHT22;6899;51.546;6.912;2022-09-28T16:35:26;10.80;99.90
13652;DHT22;6899;51.546;6.912;2022-09-28T16:38:01;10.80;99.90
13652;DHT22;6899;51.546;6.912;2022-09-28T16:40:28;10.80;99.90
13652;DHT22;6899;51.546;6.912;2022-09-28T16:43:05;10.80;99.90
13652;DHT22;6899;51.546;6.912;2022-09-28T16:45:37;10.70;99.90
13652;DHT22;6899;51.546;6.912;2022-09-28T16:48:05;10.70;99.90
13652;DHT22;6899;51.546;6.912;2022-09-28T16:50:32;10.60;99.90
13652;DHT22;6899;51.546;6.912;2022-09-28T16:53:05;10.70;99.90